sensor_id;sensor_type;location;lat;lon;timestamp;P1;durP1;ratioP1;P2;durP2;ratioP2
45136;SDS011;30894;51.740;19.498;2023-06-26T00:00:59;7.50;;;2.85;;
45136;SDS011;30894;51.740;19.498;2023-06-26T00:03:46;4.68;;;2.80;;
45136;SDS011;30894;51.740;19.498;2023-06-26T00:06:13;5.13;;;2.70;;
45136;SDS011;30894;51.740;19.498;2023-06-26T00:08:39;4.57;;;2.22;;
45136;SDS011;30894;51.740;19.498;2023-06-26T00:11:06;4.30;;;2.53;;
45136;SDS011;30894;51.740;19.498;2023-06-26T00:13:33;4.97;;;2.80;;
45136;SDS011;30894;51.740;19.498;2023-06-26T00:15:59;4.65;;;2.40;;
45136;SDS011;30894;51.740;19.498;2023-06-26T00:18:28;4.18;;;2.70;;
45136;SDS011;30894;51.740;19.498;2023-06-26T00:20:55;5.78;;;2.85;;
45136;SDS011;30894;51.740;19.498;2023-06-26T00:23:21;5.60;;;2.75;;
45136;SDS011;30894;51.740;19.498;2023-06-26T00:25:47;4.97;;;2.97;;
45136;SDS011;30894;51.740;19.498;2023-06-26T00:28:13;4.75;;;2.88;;
45136;SDS011;30894;51.740;19.498;2023-06-26T00:30:39;5.57;;;3.10;;
45136;SDS011;30894;51.740;19.498;2023-06-26T00:33:05;6.30;;;2.47;;
45136;SDS011;30894;51.740;19.498;2023-06-26T00:35:32;3.75;;;2.47;;
45136;SDS011;30894;51.740;19.498;2023-06-26T00:38:00;5.18;;;2.80;;
45136;SDS011;30894;51.740;19.498;2023-06-26T00:40:27;5.30;;;2.75;;
45136;SDS011;30894;51.740;19.498;2023-06-26T00:42:56;7.35;;;3.17;;
45136;SDS011;30894;51.740;19.498;2023-06-26T00:45:22;5.50;;;3.22;;
45136;SDS011;30894;51.740;19.498;2023-06-26T00:47:48;6.10;;;2.88;;
45136;SDS011;30894;51.740;19.498;2023-06-26T00:50:15;5.35;;;3.15;;
45136;SDS011;30894;51.740;19.498;2023-06-26T00:52:42;5.57;;;2.97;;
45136;SDS011;30894;51.740;19.498;2023-06-26T00:55:09;4.95;;;2.55;;
45136;SDS011;30894;51.740;19.498;2023-06-26T00:57:36;6.20;;;3.03;;
45136;SDS011;30894;51.740;19.498;2023-06-26T01:00:03;8.65;;;2.58;;
45136;SDS011;30894;51.740;19.498;2023-06-26T01:02:30;7.80;;;3.40;;
45136;SDS011;30894;51.740;19.498;2023-06-26T01:05:00;5.38;;;2.92;;
45136;SDS011;30894;51.740;19.498;2023-06-26T01:07:32;5.82;;;2.58;;
45136;SDS011;30894;51.740;19.498;2023-06-26T01:10:03;5.38;;;2.58;;
45136;SDS011;30894;51.740;19.498;2023-06-26T01:12:32;5.80;;;2.90;;
45136;SDS011;30894;51.740;19.498;2023-06-26T01:14:59;11.50;;;2.75;;
45136;SDS011;30894;51.740;19.498;2023-06-26T01:17:26;8.05;;;3.58;;
45136;SDS011;30894;51.740;19.498;2023-06-26T01:20:00;5.20;;;2.95;;
45136;SDS011;30894;51.740;19.498;2023-06-26T01:22:39;4.95;;;2.67;;
45136;SDS011;30894;51.740;19.498;2023-06-26T01:25:29;5.28;;;2.70;;
45136;SDS011;30894;51.740;19.498;2023-06-26T01:28:06;4.10;;;2.75;;
45136;SDS011;30894;51.740;19.498;2023-06-26T01:30:35;5.00;;;2.65;;
45136;SDS011;30894;51.740;19.498;2023-06-26T01:33:05;4.45;;;2.42;;
45136;SDS011;30894;51.740;19.498;2023-06-26T01:35:31;4.63;;;2.70;;
45136;SDS011;30894;51.740;19.498;2023-06-26T01:38:11;10.48;;;2.92;;
45136;SDS011;30894;51.740;19.498;2023-06-26T01:40:48;4.65;;;2.30;;
45136;SDS011;30894;51.740;19.498;2023-06-26T01:43:24;4.97;;;2.65;;
45136;SDS011;30894;51.740;19.498;2023-06-26T01:45:53;6.85;;;3.67;;
45136;SDS011;30894;51.740;19.498;2023-06-26T01:48:46;5.35;;;2.60;;
45136;SDS011;30894;51.740;19.498;2023-06-26T01:51:27;6.63;;;3.00;;
45136;SDS011;30894;51.740;19.498;2023-06-26T01:53:59;5.60;;;2.38;;
45136;SDS011;30894;51.740;19.498;2023-06-26T01:56:27;5.03;;;2.63;;
45136;SDS011;30894;51.740;19.498;2023-06-26T01:58:54;4.32;;;2.70;;
45136;SDS011;30894;51.740;19.498;2023-06-26T02:01:23;5.65;;;2.70;;
45136;SDS011;30894;51.740;19.498;2023-06-26T02:03:48;6.53;;;2.88;;
45136;SDS011;30894;51.740;19.498;2023-06-26T02:06:15;5.85;;;2.97;;
45136;SDS011;30894;51.740;19.498;2023-06-26T02:08:41;5.75;;;2.72;;
45136;SDS011;30894;51.740;19.498;2023-06-26T02:11:08;4.45;;;2.72;;
45136;SDS011;30894;51.740;19.498;2023-06-26T02:13:34;4.43;;;2.55;;
45136;SDS011;30894;51.740;19.498;2023-06-26T02:16:00;7.35;;;2.95;;
45136;SDS011;30894;51.740;19.498;2023-06-26T02:18:26;4.63;;;2.50;;
45136;SDS011;30894;51.740;19.498;2023-06-26T02:20:52;4.70;;;2.30;;
45136;SDS011;30894;51.740;19.498;2023-06-26T02:23:18;4.13;;;2.40;;
45136;SDS011;30894;51.740;19.498;2023-06-26T02:25:44;5.57;;;2.80;;
45136;SDS011;30894;51.740;19.498;2023-06-26T02:28:10;3.88;;;2.55;;
45136;SDS011;30894;51.740;19.498;2023-06-26T02:30:37;5.25;;;3.33;;
45136;SDS011;30894;51.740;19.498;2023-06-26T02:33:03;4.35;;;2.35;;
45136;SDS011;30894;51.740;19.498;2023-06-26T02:35:29;6.25;;;2.75;;
45136;SDS011;30894;51.740;19.498;2023-06-26T02:37:55;6.90;;;3.10;;
45136;SDS011;30894;51.740;19.498;2023-06-26T02:40:22;6.47;;;2.53;;
45136;SDS011;30894;51.740;19.498;2023-06-26T02:42:47;5.35;;;3.08;;
45136;SDS011;30894;51.740;19.498;2023-06-26T02:45:14;6.60;;;2.80;;
45136;SDS011;30894;51.740;19.498;2023-06-26T02:47:40;4.05;;;2.63;;
45136;SDS011;30894;51.740;19.498;2023-06-26T02:50:06;6.28;;;3.00;;
45136;SDS011;30894;51.740;19.498;2023-06-26T02:52:33;7.95;;;3.47;;
45136;SDS011;30894;51.740;19.498;2023-06-26T02:54:59;5.78;;;3.30;;
45136;SDS011;30894;51.740;19.498;2023-06-26T02:57:26;4.75;;;2.60;;
45136;SDS011;30894;51.740;19.498;2023-06-26T02:59:52;7.90;;;2.83;;
45136;SDS011;30894;51.740;19.498;2023-06-26T03:02:18;6.70;;;3.10;;
45136;SDS011;30894;51.740;19.498;2023-06-26T03:04:44;5.38;;;3.05;;
45136;SDS011;30894;51.740;19.498;2023-06-26T03:07:10;7.80;;;3.28;;
45136;SDS011;30894;51.740;19.498;2023-06-26T03:09:36;6.85;;;3.10;;
45136;SDS011;30894;51.740;19.498;2023-06-26T03:12:02;6.85;;;3.03;;
45136;SDS011;30894;51.740;19.498;2023-06-26T03:14:29;7.97;;;3.92;;
45136;SDS011;30894;51.740;19.498;2023-06-26T03:16:57;5.85;;;3.00;;
45136;SDS011;30894;51.740;19.498;2023-06-26T03:19:24;8.15;;;3.03;;
45136;SDS011;30894;51.740;19.498;2023-06-26T03:21:50;5.00;;;3.15;;
45136;SDS011;30894;51.740;19.498;2023-06-26T03:24:17;5.82;;;3.17;;
45136;SDS011;30894;51.740;19.498;2023-06-26T03:26:43;9.77;;;3.67;;
45136;SDS011;30894;51.740;19.498;2023-06-26T03:29:09;6.00;;;3.58;;
45136;SDS011;30894;51.740;19.498;2023-06-26T03:31:35;10.52;;;3.75;;
45136;SDS011;30894;51.740;19.498;2023-06-26T03:34:01;7.15;;;3.92;;
45136;SDS011;30894;51.740;19.498;2023-06-26T03:36:27;9.18;;;4.28;;
45136;SDS011;30894;51.740;19.498;2023-06-26T03:38:53;8.35;;;4.10;;
45136;SDS011;30894;51.740;19.498;2023-06-26T03:41:22;7.85;;;4.70;;
45136;SDS011;30894;51.740;19.498;2023-06-26T03:43:49;8.73;;;4.40;;
45136;SDS011;30894;51.740;19.498;2023-06-26T03:46:15;13.65;;;4.45;;
45136;SDS011;30894;51.740;19.498;2023-06-26T03:48:41;9.13;;;4.40;;
45136;SDS011;30894;51.740;19.498;2023-06-26T03:51:07;11.32;;;4.72;;
45136;SDS011;30894;51.740;19.498;2023-06-26T03:53:33;10.00;;;4.55;;
45136;SDS011;30894;51.740;19.498;2023-06-26T03:55:59;15.13;;;4.88;;
45136;SDS011;30894;51.740;19.498;2023-06-26T03:58:26;11.32;;;4.53;;
45136;SDS011;30894;51.740;19.498;2023-06-26T04:00:52;10.95;;;5.03;;
45136;SDS011;30894;51.740;19.498;2023-06-26T04:03:19;8.52;;;4.53;;
45136;SDS011;30894;51.740;19.498;2023-06-26T04:05:44;13.93;;;5.28;;
45136;SDS011;30894;51.740;19.498;2023-06-26T04:08:11;13.63;;;4.45;;
45136;SDS011;30894;51.740;19.498;2023-06-26T04:10:36;7.90;;;4.20;;
45136;SDS011;30894;51.740;19.498;2023-06-26T04:13:03;7.85;;;3.97;;
45136;SDS011;30894;51.740;19.498;2023-06-26T04:15:29;7.97;;;4.35;;
45136;SDS011;30894;51.740;19.498;2023-06-26T04:17:55;11.52;;;4.78;;
45136;SDS011;30894;51.740;19.498;2023-06-26T04:20:21;9.55;;;4.32;;
45136;SDS011;30894;51.740;19.498;2023-06-26T04:22:47;10.77;;;5.25;;
45136;SDS011;30894;51.740;19.498;2023-06-26T04:25:13;8.88;;;5.05;;
45136;SDS011;30894;51.740;19.498;2023-06-26T04:27:39;11.77;;;5.13;;
45136;SDS011;30894;51.740;19.498;2023-06-26T04:30:05;11.40;;;4.57;;
45136;SDS011;30894;51.740;19.498;2023-06-26T04:32:32;9.20;;;4.90;;
45136;SDS011;30894;51.740;19.498;2023-06-26T04:34:58;9.38;;;5.25;;
45136;SDS011;30894;51.740;19.498;2023-06-26T04:37:25;13.40;;;5.22;;
45136;SDS011;30894;51.740;19.498;2023-06-26T04:39:51;12.75;;;4.90;;
45136;SDS011;30894;51.740;19.498;2023-06-26T04:42:18;9.25;;;5.50;;
45136;SDS011;30894;51.740;19.498;2023-06-26T04:44:47;10.55;;;4.90;;
45136;SDS011;30894;51.740;19.498;2023-06-26T04:47:13;7.85;;;4.55;;
45136;SDS011;30894;51.740;19.498;2023-06-26T04:49:40;13.65;;;5.20;;
45136;SDS011;30894;51.740;19.498;2023-06-26T04:52:11;9.88;;;5.10;;
45136;SDS011;30894;51.740;19.498;2023-06-26T04:54:41;8.48;;;4.63;;
45136;SDS011;30894;51.740;19.498;2023-06-26T04:57:08;7.88;;;4.22;;
45136;SDS011;30894;51.740;19.498;2023-06-26T04:59:37;8.60;;;4.30;;
45136;SDS011;30894;51.740;19.498;2023-06-26T05:02:03;9.60;;;4.78;;
45136;SDS011;30894;51.740;19.498;2023-06-26T05:04:30;10.15;;;4.22;;
45136;SDS011;30894;51.740;19.498;2023-06-26T05:06:57;7.20;;;4.18;;
45136;SDS011;30894;51.740;19.498;2023-06-26T05:09:23;7.80;;;4.30;;
45136;SDS011;30894;51.740;19.498;2023-06-26T05:11:49;7.30;;;4.65;;
45136;SDS011;30894;51.740;19.498;2023-06-26T05:14:15;6.90;;;4.10;;
45136;SDS011;30894;51.740;19.498;2023-06-26T05:16:41;9.20;;;4.10;;
45136;SDS011;30894;51.740;19.498;2023-06-26T05:19:07;7.10;;;4.18;;
45136;SDS011;30894;51.740;19.498;2023-06-26T05:21:34;7.82;;;3.80;;
45136;SDS011;30894;51.740;19.498;2023-06-26T05:24:00;7.25;;;4.25;;
45136;SDS011;30894;51.740;19.498;2023-06-26T05:26:29;6.85;;;3.97;;
45136;SDS011;30894;51.740;19.498;2023-06-26T05:28:55;7.38;;;3.50;;
45136;SDS011;30894;51.740;19.498;2023-06-26T05:31:22;5.65;;;3.50;;
45136;SDS011;30894;51.740;19.498;2023-06-26T05:33:48;6.38;;;3.92;;
45136;SDS011;30894;51.740;19.498;2023-06-26T05:36:19;7.80;;;4.03;;
45136;SDS011;30894;51.740;19.498;2023-06-26T05:38:46;5.35;;;3.45;;
45136;SDS011;30894;51.740;19.498;2023-06-26T05:41:14;5.15;;;3.15;;
45136;SDS011;30894;51.740;19.498;2023-06-26T05:43:40;10.48;;;3.40;;
45136;SDS011;30894;51.740;19.498;2023-06-26T05:46:06;5.95;;;3.60;;
45136;SDS011;30894;51.740;19.498;2023-06-26T05:48:32;6.38;;;3.70;;
45136;SDS011;30894;51.740;19.498;2023-06-26T05:50:59;7.32;;;3.13;;
45136;SDS011;30894;51.740;19.498;2023-06-26T05:53:29;5.38;;;2.95;;
45136;SDS011;30894;51.740;19.498;2023-06-26T05:55:57;4.88;;;3.17;;
45136;SDS011;30894;51.740;19.498;2023-06-26T05:58:24;7.07;;;3.10;;
45136;SDS011;30894;51.740;19.498;2023-06-26T06:00:53;5.47;;;3.00;;
45136;SDS011;30894;51.740;19.498;2023-06-26T06:03:19;6.13;;;3.22;;
45136;SDS011;30894;51.740;19.498;2023-06-26T06:05:46;4.80;;;2.90;;
45136;SDS011;30894;51.740;19.498;2023-06-26T06:08:12;6.72;;;2.65;;
45136;SDS011;30894;51.740;19.498;2023-06-26T06:10:38;7.75;;;3.17;;
45136;SDS011;30894;51.740;19.498;2023-06-26T06:13:04;10.57;;;3.00;;
45136;SDS011;30894;51.740;19.498;2023-06-26T06:15:31;4.22;;;2.70;;
45136;SDS011;30894;51.740;19.498;2023-06-26T06:17:57;6.20;;;2.95;;
45136;SDS011;30894;51.740;19.498;2023-06-26T06:20:23;3.95;;;2.65;;
45136;SDS011;30894;51.740;19.498;2023-06-26T06:22:50;4.82;;;2.80;;
45136;SDS011;30894;51.740;19.498;2023-06-26T06:25:16;5.10;;;2.97;;
45136;SDS011;30894;51.740;19.498;2023-06-26T06:27:44;5.43;;;2.60;;
45136;SDS011;30894;51.740;19.498;2023-06-26T06:30:13;5.90;;;3.33;;
45136;SDS011;30894;51.740;19.498;2023-06-26T06:32:42;3.95;;;2.60;;
45136;SDS011;30894;51.740;19.498;2023-06-26T06:35:09;4.85;;;3.00;;
45136;SDS011;30894;51.740;19.498;2023-06-26T06:37:36;3.70;;;2.55;;
45136;SDS011;30894;51.740;19.498;2023-06-26T06:40:04;7.10;;;2.65;;
45136;SDS011;30894;51.740;19.498;2023-06-26T06:42:32;4.47;;;2.55;;
45136;SDS011;30894;51.740;19.498;2023-06-26T06:44:59;4.90;;;2.80;;
45136;SDS011;30894;51.740;19.498;2023-06-26T06:47:28;5.90;;;3.08;;
45136;SDS011;30894;51.740;19.498;2023-06-26T06:49:54;4.63;;;2.80;;
45136;SDS011;30894;51.740;19.498;2023-06-26T06:52:20;4.60;;;2.80;;
45136;SDS011;30894;51.740;19.498;2023-06-26T06:54:53;6.45;;;2.72;;
45136;SDS011;30894;51.740;19.498;2023-06-26T06:57:24;4.75;;;2.80;;
45136;SDS011;30894;51.740;19.498;2023-06-26T06:59:53;5.88;;;2.33;;
45136;SDS011;30894;51.740;19.498;2023-06-26T07:02:19;4.97;;;2.58;;
45136;SDS011;30894;51.740;19.498;2023-06-26T07:04:45;2.90;;;2.13;;
45136;SDS011;30894;51.740;19.498;2023-06-26T07:07:12;2.78;;;2.20;;
45136;SDS011;30894;51.740;19.498;2023-06-26T07:09:41;3.55;;;2.33;;
45136;SDS011;30894;51.740;19.498;2023-06-26T07:12:07;4.00;;;2.22;;
45136;SDS011;30894;51.740;19.498;2023-06-26T07:14:34;2.47;;;2.03;;
45136;SDS011;30894;51.740;19.498;2023-06-26T07:17:00;3.10;;;2.55;;
45136;SDS011;30894;51.740;19.498;2023-06-26T07:19:27;2.92;;;2.25;;
45136;SDS011;30894;51.740;19.498;2023-06-26T07:21:53;4.05;;;2.55;;
45136;SDS011;30894;51.740;19.498;2023-06-26T07:24:19;4.32;;;2.53;;
45136;SDS011;30894;51.740;19.498;2023-06-26T07:26:46;3.67;;;2.00;;
45136;SDS011;30894;51.740;19.498;2023-06-26T07:29:12;3.10;;;2.05;;
45136;SDS011;30894;51.740;19.498;2023-06-26T07:31:47;3.08;;;2.13;;
45136;SDS011;30894;51.740;19.498;2023-06-26T07:34:13;3.85;;;2.10;;
45136;SDS011;30894;51.740;19.498;2023-06-26T07:36:39;3.80;;;2.13;;
45136;SDS011;30894;51.740;19.498;2023-06-26T07:39:08;3.47;;;2.17;;
45136;SDS011;30894;51.740;19.498;2023-06-26T07:41:34;2.60;;;2.00;;
45136;SDS011;30894;51.740;19.498;2023-06-26T07:44:01;2.72;;;1.80;;
45136;SDS011;30894;51.740;19.498;2023-06-26T07:46:30;2.95;;;1.63;;
45136;SDS011;30894;51.740;19.498;2023-06-26T07:48:57;3.63;;;1.88;;
45136;SDS011;30894;51.740;19.498;2023-06-26T07:51:24;2.05;;;1.80;;
45136;SDS011;30894;51.740;19.498;2023-06-26T07:53:50;2.78;;;1.88;;
45136;SDS011;30894;51.740;19.498;2023-06-26T07:56:20;2.40;;;1.85;;
45136;SDS011;30894;51.740;19.498;2023-06-26T07:58:54;2.17;;;1.73;;
45136;SDS011;30894;51.740;19.498;2023-06-26T08:01:23;4.97;;;1.87;;
45136;SDS011;30894;51.740;19.498;2023-06-26T08:03:50;1.75;;;1.42;;
45136;SDS011;30894;51.740;19.498;2023-06-26T08:06:16;3.88;;;2.00;;
45136;SDS011;30894;51.740;19.498;2023-06-26T08:08:42;4.80;;;2.15;;
45136;SDS011;30894;51.740;19.498;2023-06-26T08:11:08;5.90;;;2.05;;
45136;SDS011;30894;51.740;19.498;2023-06-26T08:13:35;2.08;;;1.50;;
45136;SDS011;30894;51.740;19.498;2023-06-26T08:16:01;2.38;;;1.60;;
45136;SDS011;30894;51.740;19.498;2023-06-26T08:18:29;2.65;;;1.55;;
45136;SDS011;30894;51.740;19.498;2023-06-26T08:20:58;2.90;;;1.80;;
45136;SDS011;30894;51.740;19.498;2023-06-26T08:23:27;3.15;;;1.92;;
45136;SDS011;30894;51.740;19.498;2023-06-26T08:25:55;3.15;;;1.90;;
45136;SDS011;30894;51.740;19.498;2023-06-26T08:28:24;2.70;;;1.65;;
45136;SDS011;30894;51.740;19.498;2023-06-26T08:30:50;2.83;;;1.80;;
45136;SDS011;30894;51.740;19.498;2023-06-26T08:33:17;1.77;;;1.55;;
45136;SDS011;30894;51.740;19.498;2023-06-26T08:35:43;2.33;;;1.60;;
45136;SDS011;30894;51.740;19.498;2023-06-26T08:38:09;2.10;;;1.65;;
45136;SDS011;30894;51.740;19.498;2023-06-26T08:40:35;5.57;;;2.17;;
45136;SDS011;30894;51.740;19.498;2023-06-26T08:43:02;2.33;;;2.00;;
45136;SDS011;30894;51.740;19.498;2023-06-26T08:45:29;2.67;;;1.90;;
45136;SDS011;30894;51.740;19.498;2023-06-26T08:47:56;2.60;;;1.52;;
45136;SDS011;30894;51.740;19.498;2023-06-26T08:50:30;3.55;;;1.58;;
45136;SDS011;30894;51.740;19.498;2023-06-26T08:53:43;2.42;;;1.88;;
45136;SDS011;30894;51.740;19.498;2023-06-26T08:55:57;3.42;;;2.10;;
45136;SDS011;30894;51.740;19.498;2023-06-26T08:58:24;3.42;;;2.00;;
45136;SDS011;30894;51.740;19.498;2023-06-26T09:00:50;2.53;;;1.80;;
45136;SDS011;30894;51.740;19.498;2023-06-26T09:03:17;2.60;;;1.85;;
45136;SDS011;30894;51.740;19.498;2023-06-26T09:05:43;3.33;;;2.08;;
45136;SDS011;30894;51.740;19.498;2023-06-26T09:08:09;4.85;;;1.83;;
45136;SDS011;30894;51.740;19.498;2023-06-26T09:10:36;3.13;;;1.98;;
45136;SDS011;30894;51.740;19.498;2023-06-26T09:13:02;5.40;;;1.63;;
45136;SDS011;30894;51.740;19.498;2023-06-26T09:15:47;4.03;;;2.20;;
45136;SDS011;30894;51.740;19.498;2023-06-26T09:18:13;2.25;;;1.73;;
45136;SDS011;30894;51.740;19.498;2023-06-26T09:20:44;2.83;;;1.55;;
45136;SDS011;30894;51.740;19.498;2023-06-26T09:23:11;2.78;;;1.60;;
45136;SDS011;30894;51.740;19.498;2023-06-26T09:25:39;2.75;;;1.85;;
45136;SDS011;30894;51.740;19.498;2023-06-26T09:28:07;5.50;;;1.95;;
45136;SDS011;30894;51.740;19.498;2023-06-26T09:30:36;3.00;;;2.03;;
45136;SDS011;30894;51.740;19.498;2023-06-26T09:33:13;3.80;;;2.03;;
45136;SDS011;30894;51.740;19.498;2023-06-26T09:35:47;2.30;;;1.80;;
45136;SDS011;30894;51.740;19.498;2023-06-26T09:38:14;2.78;;;1.92;;
45136;SDS011;30894;51.740;19.498;2023-06-26T09:40:40;2.75;;;2.05;;
45136;SDS011;30894;51.740;19.498;2023-06-26T09:43:07;4.55;;;1.73;;
45136;SDS011;30894;51.740;19.498;2023-06-26T09:45:39;9.32;;;2.10;;
45136;SDS011;30894;51.740;19.498;2023-06-26T09:48:06;2.03;;;1.63;;
45136;SDS011;30894;51.740;19.498;2023-06-26T09:50:34;4.05;;;1.77;;
45136;SDS011;30894;51.740;19.498;2023-06-26T09:53:09;2.47;;;1.70;;
45136;SDS011;30894;51.740;19.498;2023-06-26T09:55:37;2.90;;;1.63;;
45136;SDS011;30894;51.740;19.498;2023-06-26T09:58:04;2.53;;;1.70;;
45136;SDS011;30894;51.740;19.498;2023-06-26T10:00:32;3.15;;;1.42;;
45136;SDS011;30894;51.740;19.498;2023-06-26T10:03:00;3.03;;;1.65;;
45136;SDS011;30894;51.740;19.498;2023-06-26T10:05:26;6.93;;;1.83;;
45136;SDS011;30894;51.740;19.498;2023-06-26T10:07:53;1.98;;;1.58;;
45136;SDS011;30894;51.740;19.498;2023-06-26T10:10:23;2.80;;;1.90;;
45136;SDS011;30894;51.740;19.498;2023-06-26T10:15:25;2.28;;;1.70;;
45136;SDS011;30894;51.740;19.498;2023-06-26T10:18:02;2.55;;;2.08;;
45136;SDS011;30894;51.740;19.498;2023-06-26T10:20:28;2.45;;;1.95;;
45136;SDS011;30894;51.740;19.498;2023-06-26T10:22:55;2.70;;;2.20;;
45136;SDS011;30894;51.740;19.498;2023-06-26T10:25:26;5.90;;;2.10;;
45136;SDS011;30894;51.740;19.498;2023-06-26T10:27:54;2.85;;;1.77;;
45136;SDS011;30894;51.740;19.498;2023-06-26T10:30:28;2.78;;;1.80;;
45136;SDS011;30894;51.740;19.498;2023-06-26T10:32:59;2.42;;;1.77;;
45136;SDS011;30894;51.740;19.498;2023-06-26T10:35:27;4.53;;;1.88;;
45136;SDS011;30894;51.740;19.498;2023-06-26T10:37:59;2.58;;;1.90;;
45136;SDS011;30894;51.740;19.498;2023-06-26T10:40:33;2.40;;;1.60;;
45136;SDS011;30894;51.740;19.498;2023-06-26T10:43:11;4.30;;;1.80;;
45136;SDS011;30894;51.740;19.498;2023-06-26T10:45:48;2.30;;;2.00;;
45136;SDS011;30894;51.740;19.498;2023-06-26T10:48:19;3.80;;;2.08;;
45136;SDS011;30894;51.740;19.498;2023-06-26T10:50:49;4.40;;;2.40;;
45136;SDS011;30894;51.740;19.498;2023-06-26T10:55:48;1.65;;;1.55;;
45136;SDS011;30894;51.740;19.498;2023-06-26T10:58:26;2.50;;;1.90;;
45136;SDS011;30894;51.740;19.498;2023-06-26T11:01:25;2.85;;;2.13;;
45136;SDS011;30894;51.740;19.498;2023-06-26T11:06:24;2.85;;;2.28;;
45136;SDS011;30894;51.740;19.498;2023-06-26T11:08:55;2.30;;;1.40;;
45136;SDS011;30894;51.740;19.498;2023-06-26T11:14:24;3.63;;;2.13;;
45136;SDS011;30894;51.740;19.498;2023-06-26T11:16:54;4.53;;;2.20;;
45136;SDS011;30894;51.740;19.498;2023-06-26T11:19:23;2.40;;;1.75;;
45136;SDS011;30894;51.740;19.498;2023-06-26T11:21:57;3.28;;;2.00;;
45136;SDS011;30894;51.740;19.498;2023-06-26T11:24:25;7.47;;;2.13;;
45136;SDS011;30894;51.740;19.498;2023-06-26T11:26:54;3.60;;;1.95;;
45136;SDS011;30894;51.740;19.498;2023-06-26T11:29:27;5.00;;;1.88;;
45136;SDS011;30894;51.740;19.498;2023-06-26T11:31:58;2.42;;;1.83;;
45136;SDS011;30894;51.740;19.498;2023-06-26T11:34:31;2.47;;;1.73;;
45136;SDS011;30894;51.740;19.498;2023-06-26T11:36:59;2.25;;;1.80;;
45136;SDS011;30894;51.740;19.498;2023-06-26T11:39:26;2.15;;;1.90;;
45136;SDS011;30894;51.740;19.498;2023-06-26T11:41:55;3.22;;;1.90;;
45136;SDS011;30894;51.740;19.498;2023-06-26T11:44:22;4.05;;;1.90;;
45136;SDS011;30894;51.740;19.498;2023-06-26T11:46:51;2.75;;;2.08;;
45136;SDS011;30894;51.740;19.498;2023-06-26T11:49:20;3.03;;;1.92;;
45136;SDS011;30894;51.740;19.498;2023-06-26T11:51:52;2.90;;;2.00;;
45136;SDS011;30894;51.740;19.498;2023-06-26T11:54:26;1.95;;;1.65;;
45136;SDS011;30894;51.740;19.498;2023-06-26T11:56:57;2.05;;;1.85;;
45136;SDS011;30894;51.740;19.498;2023-06-26T11:59:38;5.80;;;1.83;;
45136;SDS011;30894;51.740;19.498;2023-06-26T12:02:13;3.00;;;2.28;;
45136;SDS011;30894;51.740;19.498;2023-06-26T12:04:44;2.13;;;1.85;;
45136;SDS011;30894;51.740;19.498;2023-06-26T12:07:11;2.47;;;1.73;;
45136;SDS011;30894;51.740;19.498;2023-06-26T12:09:40;3.58;;;2.00;;
45136;SDS011;30894;51.740;19.498;2023-06-26T12:12:12;2.35;;;1.80;;
45136;SDS011;30894;51.740;19.498;2023-06-26T12:14:42;2.35;;;1.55;;
45136;SDS011;30894;51.740;19.498;2023-06-26T12:17:09;3.38;;;1.88;;
45136;SDS011;30894;51.740;19.498;2023-06-26T12:19:44;2.30;;;1.77;;
45136;SDS011;30894;51.740;19.498;2023-06-26T12:22:15;3.17;;;2.20;;
45136;SDS011;30894;51.740;19.498;2023-06-26T12:24:44;2.10;;;1.70;;
45136;SDS011;30894;51.740;19.498;2023-06-26T12:27:15;2.08;;;1.88;;
45136;SDS011;30894;51.740;19.498;2023-06-26T12:29:53;6.68;;;2.22;;
45136;SDS011;30894;51.740;19.498;2023-06-26T12:32:23;2.50;;;1.65;;
45136;SDS011;30894;51.740;19.498;2023-06-26T12:34:56;2.35;;;2.15;;
45136;SDS011;30894;51.740;19.498;2023-06-26T12:37:25;2.55;;;1.98;;
45136;SDS011;30894;51.740;19.498;2023-06-26T12:39:53;3.80;;;2.10;;
45136;SDS011;30894;51.740;19.498;2023-06-26T12:42:24;2.53;;;2.10;;
45136;SDS011;30894;51.740;19.498;2023-06-26T12:44:53;2.42;;;1.90;;
45136;SDS011;30894;51.740;19.498;2023-06-26T12:47:24;3.03;;;2.33;;
45136;SDS011;30894;51.740;19.498;2023-06-26T12:49:56;4.43;;;2.58;;
45136;SDS011;30894;51.740;19.498;2023-06-26T12:52:22;2.33;;;2.00;;
45136;SDS011;30894;51.740;19.498;2023-06-26T12:54:53;7.57;;;2.22;;
45136;SDS011;30894;51.740;19.498;2023-06-26T12:57:21;4.90;;;1.95;;
45136;SDS011;30894;51.740;19.498;2023-06-26T12:59:47;3.40;;;2.20;;
45136;SDS011;30894;51.740;19.498;2023-06-26T13:02:14;3.22;;;2.20;;
45136;SDS011;30894;51.740;19.498;2023-06-26T13:04:41;3.28;;;2.10;;
45136;SDS011;30894;51.740;19.498;2023-06-26T13:07:10;4.18;;;2.30;;
45136;SDS011;30894;51.740;19.498;2023-06-26T13:09:37;2.65;;;2.00;;
45136;SDS011;30894;51.740;19.498;2023-06-26T13:12:07;3.67;;;2.10;;
45136;SDS011;30894;51.740;19.498;2023-06-26T13:14:34;2.40;;;2.20;;
45136;SDS011;30894;51.740;19.498;2023-06-26T13:17:03;2.05;;;1.80;;
45136;SDS011;30894;51.740;19.498;2023-06-26T13:19:30;3.53;;;1.92;;
45136;SDS011;30894;51.740;19.498;2023-06-26T13:21:59;3.13;;;2.00;;
45136;SDS011;30894;51.740;19.498;2023-06-26T13:24:26;6.70;;;2.08;;
45136;SDS011;30894;51.740;19.498;2023-06-26T13:26:51;3.45;;;1.92;;
45136;SDS011;30894;51.740;19.498;2023-06-26T13:29:19;2.42;;;1.85;;
45136;SDS011;30894;51.740;19.498;2023-06-26T13:31:45;3.97;;;2.15;;
45136;SDS011;30894;51.740;19.498;2023-06-26T13:34:21;5.13;;;1.85;;
45136;SDS011;30894;51.740;19.498;2023-06-26T13:36:48;4.15;;;2.05;;
45136;SDS011;30894;51.740;19.498;2023-06-26T13:39:15;4.53;;;2.25;;
45136;SDS011;30894;51.740;19.498;2023-06-26T13:41:41;3.35;;;2.00;;
45136;SDS011;30894;51.740;19.498;2023-06-26T13:44:07;2.75;;;2.17;;
45136;SDS011;30894;51.740;19.498;2023-06-26T13:46:34;3.30;;;2.00;;
45136;SDS011;30894;51.740;19.498;2023-06-26T13:49:00;2.70;;;1.88;;
45136;SDS011;30894;51.740;19.498;2023-06-26T13:51:26;5.90;;;2.05;;
45136;SDS011;30894;51.740;19.498;2023-06-26T13:53:52;7.47;;;2.28;;
45136;SDS011;30894;51.740;19.498;2023-06-26T13:56:20;3.03;;;2.20;;
45136;SDS011;30894;51.740;19.498;2023-06-26T13:58:48;2.38;;;1.95;;
45136;SDS011;30894;51.740;19.498;2023-06-26T14:01:14;2.95;;;2.10;;
45136;SDS011;30894;51.740;19.498;2023-06-26T14:03:41;2.33;;;1.92;;
45136;SDS011;30894;51.740;19.498;2023-06-26T14:06:09;5.55;;;2.40;;
45136;SDS011;30894;51.740;19.498;2023-06-26T14:08:35;3.53;;;2.20;;
45136;SDS011;30894;51.740;19.498;2023-06-26T14:11:01;4.70;;;1.88;;
45136;SDS011;30894;51.740;19.498;2023-06-26T14:13:30;9.80;;;2.40;;
45136;SDS011;30894;51.740;19.498;2023-06-26T14:15:57;4.45;;;2.38;;
45136;SDS011;30894;51.740;19.498;2023-06-26T14:18:22;3.13;;;1.83;;
45136;SDS011;30894;51.740;19.498;2023-06-26T14:20:50;3.25;;;2.17;;
45136;SDS011;30894;51.740;19.498;2023-06-26T14:23:16;2.22;;;1.90;;
45136;SDS011;30894;51.740;19.498;2023-06-26T14:25:42;4.50;;;2.38;;
45136;SDS011;30894;51.740;19.498;2023-06-26T14:28:08;2.33;;;2.10;;
45136;SDS011;30894;51.740;19.498;2023-06-26T14:30:35;3.83;;;2.55;;
45136;SDS011;30894;51.740;19.498;2023-06-26T14:33:03;3.28;;;2.35;;
45136;SDS011;30894;51.740;19.498;2023-06-26T14:35:29;8.18;;;2.50;;
45136;SDS011;30894;51.740;19.498;2023-06-26T14:37:56;6.03;;;2.13;;
45136;SDS011;30894;51.740;19.498;2023-06-26T14:40:22;2.70;;;2.28;;
45136;SDS011;30894;51.740;19.498;2023-06-26T14:42:48;5.50;;;2.50;;
45136;SDS011;30894;51.740;19.498;2023-06-26T14:45:14;3.53;;;2.42;;
45136;SDS011;30894;51.740;19.498;2023-06-26T14:47:40;4.30;;;2.28;;
45136;SDS011;30894;51.740;19.498;2023-06-26T14:50:07;5.18;;;2.42;;